createdAt,value
2018-08-17T00:00:40.218Z,100996.19
2018-08-17T00:03:44.480Z,100994.05
2018-08-17T00:06:48.400Z,100991.69
2018-08-17T00:09:52.828Z,100984.91
2018-08-17T00:12:57.061Z,100989.76
2018-08-17T00:16:01.540Z,100991.30
2018-08-17T00:19:05.701Z,100988.33
2018-08-17T00:22:09.591Z,100986.45
2018-08-17T00:25:13.492Z,100979.10
2018-08-17T00:28:17.392Z,100968.23
2018-08-17T00:31:21.309Z,100963.04
2018-08-17T00:34:25.557Z,100966.44
2018-08-17T00:37:29.458Z,100971.53
2018-08-17T00:40:33.577Z,100968.44
2018-08-17T00:43:37.825Z,100969.03
2018-08-17T00:46:41.733Z,100967.14
2018-08-17T00:49:45.694Z,100967.50
2018-08-17T00:52:49.822Z,100967.11
2018-08-17T00:55:54.168Z,100966.65
2018-08-17T00:58:58.242Z,100967.92
2018-08-17T01:02:02.132Z,100965.80
2018-08-17T01:05:06.254Z,100961.55
2018-08-17T01:08:10.676Z,100968.98
2018-08-17T01:11:16.872Z,100970.48
2018-08-17T01:14:20.769Z,100967.77
2018-08-17T01:17:24.898Z,100968.48
2018-08-17T01:20:29.110Z,100973.05
2018-08-17T01:23:33.325Z,100977.66
2018-08-17T01:26:37.218Z,100982.58
2018-08-17T01:29:41.092Z,100980.21
2018-08-17T01:32:45.305Z,100983.02
2018-08-17T01:35:49.193Z,100985.13
2018-08-17T01:38:53.097Z,100979.42
2018-08-17T01:41:56.973Z,100975.77
2018-08-17T01:45:01.095Z,100974.11
2018-08-17T01:48:04.984Z,100975.23
2018-08-17T01:51:08.865Z,100974.30
2018-08-17T01:54:12.744Z,100970.62
2018-08-17T01:57:16.625Z,100973.66
2018-08-17T02:00:21.081Z,100975.89
2018-08-17T02:03:24.961Z,100973.88
2018-08-17T02:06:28.854Z,100978.00
2018-08-17T02:09:32.836Z,100975.83
2018-08-17T02:12:36.992Z,100974.88
2018-08-17T02:15:40.928Z,100981.83
2018-08-17T02:18:44.801Z,100978.16
2018-08-17T02:21:48.721Z,100975.65
2018-08-17T02:24:52.605Z,100972.81
2018-08-17T02:27:56.633Z,100974.34
2018-08-17T02:31:00.775Z,100971.14
2018-08-17T02:34:04.680Z,100969.20
2018-08-17T02:37:09.093Z,100969.78
2018-08-17T02:40:13.336Z,100966.70
2018-08-17T02:43:17.213Z,100961.63
2018-08-17T02:46:21.113Z,100961.09
2018-08-17T02:49:25.001Z,100963.34
2018-08-17T02:52:29.098Z,100963.50
2018-08-17T02:55:32.998Z,100965.73
2018-08-17T02:58:37.076Z,100959.97
2018-08-17T03:01:41.056Z,100966.50
2018-08-17T03:04:44.961Z,100967.16
2018-08-17T03:07:48.868Z,100965.16
2018-08-17T03:10:52.944Z,100971.74
2018-08-17T03:13:56.853Z,100974.30
2018-08-17T03:17:01.059Z,100973.37
2018-08-17T03:20:06.001Z,100975.67
2018-08-17T03:23:11.108Z,100980.36
2018-08-17T03:26:15.329Z,100978.45
2018-08-17T03:29:19.226Z,100978.75
2018-08-17T03:32:23.324Z,100988.75
2018-08-17T03:35:27.226Z,100985.80
2018-08-17T03:38:31.461Z,100986.20
2018-08-17T03:41:35.344Z,100988.72
2018-08-17T03:44:39.304Z,100997.98
2018-08-17T03:47:43.389Z,101002.69
2018-08-17T03:50:47.301Z,101002.44
2018-08-17T03:53:51.824Z,101004.52
2018-08-17T03:56:55.859Z,101007.76
2018-08-17T03:59:59.729Z,101011.28
2018-08-17T04:03:03.949Z,101012.11
2018-08-17T04:06:08.394Z,101014.55
2018-08-17T04:09:12.478Z,101018.66
2018-08-17T04:12:16.540Z,101017.46
2018-08-17T04:15:20.463Z,101020.59
2018-08-17T04:18:24.521Z,101022.31
2018-08-17T04:21:30.138Z,101020.19
2018-08-17T04:24:34.043Z,101028.78
2018-08-17T04:27:37.942Z,101032.95
2018-08-17T04:30:41.826Z,101033.78
2018-08-17T04:33:46.400Z,101036.94
2018-08-17T04:36:50.728Z,101039.38
2018-08-17T04:39:54.645Z,101039.58
2018-08-17T04:42:58.546Z,101044.47
2018-08-17T04:46:02.445Z,101047.53
2018-08-17T04:49:06.352Z,101046.52
2018-08-17T04:52:10.413Z,101056.42
2018-08-17T04:55:14.312Z,101058.08
2018-08-17T04:58:18.386Z,101066.31
2018-08-17T05:01:22.286Z,101066.42
2018-08-17T05:04:26.708Z,101066.78
2018-08-17T05:07:30.589Z,101071.28
2018-08-17T05:10:34.489Z,101078.33
2018-08-17T05:13:38.423Z,101073.41
2018-08-17T05:16:42.500Z,101066.45
2018-08-17T05:19:46.389Z,101068.75
2018-08-17T05:22:50.471Z,101081.53
2018-08-17T05:25:54.868Z,101083.45
2018-08-17T05:28:58.766Z,101087.95
2018-08-17T05:32:02.640Z,101084.72
2018-08-17T05:35:06.628Z,101071.66
2018-08-17T05:38:10.511Z,101075.70
2018-08-17T05:41:14.398Z,101076.53
2018-08-17T05:44:18.473Z,101078.08
2018-08-17T05:47:22.528Z,101075.78
2018-08-17T05:50:26.502Z,101074.64
2018-08-17T05:53:30.368Z,101073.47
2018-08-17T05:56:34.326Z,101079.45
2018-08-17T05:59:38.368Z,101080.78
2018-08-17T06:02:42.521Z,101082.98
2018-08-17T06:05:46.593Z,101084.31
2018-08-17T06:08:50.817Z,101080.03
2018-08-17T06:11:54.692Z,101092.05
2018-08-17T06:14:58.576Z,101083.48
2018-08-17T06:18:02.475Z,101075.30
2018-08-17T06:21:06.383Z,101079.58
2018-08-17T06:24:11.393Z,101076.11
2018-08-17T06:27:15.277Z,101073.90
2018-08-17T06:30:19.496Z,101085.17
2018-08-17T06:33:23.718Z,101093.80
2018-08-17T06:36:27.608Z,101096.34
2018-08-17T06:39:31.493Z,101096.77
2018-08-17T06:42:35.366Z,101095.02
2018-08-17T06:45:39.251Z,101104.05
2018-08-17T06:48:43.141Z,101106.20
2018-08-17T06:51:47.366Z,101104.59
2018-08-17T06:54:51.425Z,101098.47
2018-08-17T06:57:55.299Z,101089.90
2018-08-17T07:00:59.177Z,101099.90
2018-08-17T07:04:03.572Z,101096.38
2018-08-17T07:07:07.530Z,101097.23
2018-08-17T07:10:12.785Z,101095.48
2018-08-17T07:13:16.909Z,101093.39
2018-08-17T07:16:21.062Z,101091.98
2018-08-17T07:19:25.122Z,101100.65
2018-08-17T07:22:29.677Z,101094.16
2018-08-17T07:25:34.145Z,101098.33
2018-08-17T07:28:38.041Z,101106.98
2018-08-17T07:31:41.929Z,101108.64
2018-08-17T07:34:45.812Z,101113.28
2018-08-17T07:37:49.685Z,101122.65
2018-08-17T07:40:54.121Z,101134.70
2018-08-17T07:43:58.373Z,101129.68
2018-08-17T07:47:02.494Z,101136.45
2018-08-17T07:50:06.389Z,101143.20
2018-08-17T07:53:10.705Z,101141.77
2018-08-17T07:56:14.602Z,101143.81
2018-08-17T07:59:18.501Z,101148.44
2018-08-17T08:02:22.386Z,101156.11
2018-08-17T08:05:26.287Z,101147.84
2018-08-17T08:08:30.168Z,101145.58
2018-08-17T08:11:34.415Z,101153.28
2018-08-17T08:14:38.560Z,101154.20
2018-08-17T08:17:42.569Z,101151.14
2018-08-17T08:20:46.693Z,101154.20
2018-08-17T08:23:50.824Z,101151.28
2018-08-17T08:26:54.713Z,101146.52
2018-08-17T08:29:58.637Z,101148.44
2018-08-17T08:33:02.877Z,101159.66
2018-08-17T08:36:07.108Z,101169.96
2018-08-17T08:39:12.601Z,101160.72
2018-08-17T08:42:16.469Z,101169.20
2018-08-17T08:45:20.695Z,101167.30
2018-08-17T08:48:24.778Z,101160.17
2018-08-17T08:51:28.664Z,101167.01
2018-08-17T08:54:32.556Z,101175.66
2018-08-17T08:57:36.781Z,101173.48
2018-08-17T09:00:40.998Z,101166.00
2018-08-17T09:03:45.220Z,101167.61
2018-08-17T09:06:49.436Z,101171.07
2018-08-17T09:09:53.390Z,101171.98
2018-08-17T09:12:57.293Z,101173.97
2018-08-17T09:16:01.396Z,101167.88
2018-08-17T09:19:05.381Z,101171.65
2018-08-17T09:22:09.619Z,101172.11
2018-08-17T09:25:13.841Z,101171.92
2018-08-17T09:28:18.052Z,101176.78
2018-08-17T09:31:22.481Z,101178.65
2018-08-17T09:34:26.374Z,101185.98
2018-08-17T09:37:30.294Z,101188.67
2018-08-17T09:40:34.506Z,101185.31
2018-08-17T09:43:38.376Z,101195.49
2018-08-17T09:46:42.267Z,101193.81
2018-08-17T09:49:46.366Z,101199.81
2018-08-17T09:52:50.333Z,101200.75
2018-08-17T09:55:54.229Z,101203.91
2018-08-17T09:58:58.468Z,101212.58
2018-08-17T10:02:08.903Z,101223.11
2018-08-17T10:05:18.329Z,101232.70
2018-08-17T10:08:27.561Z,101227.69
2018-08-17T10:11:31.445Z,101233.13
2018-08-17T10:14:35.335Z,101229.55
2018-08-17T10:17:39.565Z,101229.42
2018-08-17T10:20:43.520Z,101228.45
2018-08-17T10:23:47.542Z,101228.70
2018-08-17T10:26:52.555Z,101232.48
2018-08-17T10:29:56.446Z,101228.42
2018-08-17T10:33:00.910Z,101237.92
2018-08-17T10:36:05.168Z,101232.55
2018-08-17T10:39:10.153Z,101238.61
2018-08-17T10:42:14.530Z,101246.80
2018-08-17T10:45:19.617Z,101244.52
2018-08-17T10:48:23.497Z,101244.28
2018-08-17T10:51:27.378Z,101236.44
2018-08-17T10:54:31.256Z,101238.44
2018-08-17T10:57:35.209Z,101240.44
2018-08-17T11:00:39.577Z,101229.36
2018-08-17T11:03:43.457Z,101227.91
2018-08-17T11:06:47.333Z,101235.52
2018-08-17T11:09:51.689Z,101233.94
2018-08-17T11:12:55.566Z,101238.55
2018-08-17T11:15:59.709Z,101249.55
2018-08-17T11:19:03.823Z,101251.09
2018-08-17T11:22:08.041Z,101251.92
2018-08-17T11:25:13.022Z,101257.16
2018-08-17T11:28:16.916Z,101246.80
2018-08-17T11:31:20.793Z,101248.39
2018-08-17T11:34:24.746Z,101252.23
2018-08-17T11:37:28.781Z,101259.88
2018-08-17T11:40:33.024Z,101254.88
2018-08-17T11:43:36.895Z,101261.34
2018-08-17T11:46:40.780Z,101270.63
2018-08-17T11:49:44.668Z,101262.20
2018-08-17T11:53:05.333Z,101255.11
2018-08-17T11:56:09.540Z,101256.14
2018-08-17T11:59:13.421Z,101261.73
2018-08-17T12:02:17.922Z,101266.06
2018-08-17T12:05:22.118Z,101271.91
2018-08-17T12:08:26.152Z,101264.09
2018-08-17T12:11:30.226Z,101267.58
2018-08-17T12:14:34.305Z,101273.67
2018-08-17T12:17:38.373Z,101267.42
2018-08-17T12:20:42.256Z,101260.61
2018-08-17T12:23:46.137Z,101261.66
2018-08-17T12:26:53.716Z,101257.78
2018-08-17T12:29:57.605Z,101257.78
2018-08-17T12:33:01.480Z,101263.59
2018-08-17T12:36:05.704Z,101255.41
2018-08-17T12:39:09.991Z,101255.47
2018-08-17T12:42:14.112Z,101253.45
2018-08-17T12:45:18.177Z,101265.89
2018-08-17T12:48:22.064Z,101270.03
2018-08-17T12:51:25.946Z,101270.03
2018-08-17T12:54:34.772Z,101265.85
2018-08-17T12:57:42.352Z,101261.11
2018-08-17T13:00:46.564Z,101265.24
2018-08-17T13:03:50.462Z,101260.02
2018-08-17T13:06:54.365Z,101259.92
2018-08-17T13:09:58.242Z,101251.82
2018-08-17T13:13:06.721Z,101262.48
2018-08-17T13:16:10.606Z,101262.83
2018-08-17T13:19:14.485Z,101266.14
2018-08-17T13:22:18.392Z,101261.51
2018-08-17T13:25:22.509Z,101268.95
2018-08-17T13:28:26.625Z,101260.98
2018-08-17T13:31:31.220Z,101269.03
2018-08-17T13:34:35.177Z,101268.53
2018-08-17T13:37:39.077Z,101269.12
2018-08-17T13:40:43.169Z,101279.20
2018-08-17T13:43:47.061Z,101283.55
2018-08-17T13:46:50.961Z,101289.12
2018-08-17T13:49:54.838Z,101288.06
2018-08-17T13:52:58.936Z,101291.71
2018-08-17T13:56:03.169Z,101284.56
2018-08-17T13:59:07.088Z,101294.41
2018-08-17T14:02:11.647Z,101288.56
2018-08-17T14:05:15.692Z,101293.44
2018-08-17T14:08:19.607Z,101293.44
2018-08-17T14:11:24.105Z,101286.91
2018-08-17T14:14:28.385Z,101280.52
2018-08-17T14:17:32.265Z,101281.81
2018-08-17T14:23:55.117Z,101277.77
2018-08-17T14:26:59.005Z,101277.05
2018-08-17T14:30:02.957Z,101282.48
2018-08-17T14:33:07.085Z,101281.73
2018-08-17T14:36:11.504Z,101288.00
2018-08-17T14:39:15.436Z,101285.63
2018-08-17T14:42:19.636Z,101296.77
2018-08-17T14:45:23.721Z,101291.75
2018-08-17T14:48:27.856Z,101290.66
2018-08-17T14:51:31.772Z,101294.79
2018-08-17T14:54:35.660Z,101291.24
2018-08-17T14:57:40.087Z,101281.13
2018-08-17T15:00:44.295Z,101289.67
2018-08-17T15:03:48.194Z,101295.93
2018-08-17T15:06:52.401Z,101288.56
2018-08-17T15:09:56.550Z,101284.99
2018-08-17T15:13:00.776Z,101291.05
2018-08-17T15:16:04.882Z,101294.00
2018-08-17T15:19:08.815Z,101288.78
2018-08-17T15:22:13.233Z,101293.66
2018-08-17T15:25:17.456Z,101297.86
2018-08-17T15:28:21.345Z,101297.98
2018-08-17T15:31:25.239Z,101303.36
2018-08-17T15:34:29.144Z,101308.61
2018-08-17T15:37:33.142Z,101305.09
2018-08-17T15:40:37.382Z,101297.28
2018-08-17T15:43:41.453Z,101303.73
2018-08-17T15:46:45.921Z,101303.28
2018-08-17T15:50:03.977Z,101309.26
2018-08-17T15:53:08.185Z,101310.34
2018-08-17T15:56:13.117Z,101307.52
2018-08-17T15:59:17.345Z,101302.19
2018-08-17T16:02:21.484Z,101307.06
2018-08-17T16:05:25.898Z,101300.80
2018-08-17T16:08:29.802Z,101304.72
2018-08-17T16:11:33.874Z,101310.08
2018-08-17T16:14:37.767Z,101306.77
2018-08-17T16:17:41.839Z,101309.96
2018-08-17T16:20:45.716Z,101306.17
2018-08-17T16:23:49.943Z,101301.18
2018-08-17T16:26:54.152Z,101300.01
2018-08-17T16:29:58.042Z,101298.01
2018-08-17T16:33:01.953Z,101300.50
2018-08-17T16:36:05.913Z,101303.16
2018-08-17T16:39:13.503Z,101309.95
2018-08-17T16:42:22.762Z,101313.62
2018-08-17T16:45:26.625Z,101307.83
2018-08-17T16:48:30.602Z,101307.97
2018-08-17T16:51:34.745Z,101314.38
2018-08-17T16:54:38.714Z,101307.97
2018-08-17T16:57:42.710Z,101301.36
2018-08-17T17:00:46.985Z,101311.45
2018-08-17T17:03:51.024Z,101313.59
2018-08-17T17:06:54.906Z,101309.10
2018-08-17T17:09:59.076Z,101309.20
2018-08-17T17:13:03.159Z,101313.59
2018-08-17T17:16:07.060Z,101315.51
2018-08-17T17:19:16.235Z,101311.84
2018-08-17T17:22:20.720Z,101304.98
2018-08-17T17:25:24.577Z,101314.72
2018-08-17T17:28:31.562Z,101316.16
2018-08-17T17:31:35.442Z,101317.08
2018-08-17T17:34:39.413Z,101315.42
2018-08-17T17:37:43.448Z,101319.12
2018-08-17T17:40:47.326Z,101317.46
2018-08-17T17:43:51.425Z,101321.50
2018-08-17T17:46:55.314Z,101329.11
2018-08-17T17:49:59.237Z,101328.38
2018-08-17T17:53:04.302Z,101326.25
2018-08-17T17:56:08.189Z,101325.55
2018-08-17T17:59:14.587Z,101330.42
2018-08-17T18:02:18.809Z,101331.16
2018-08-17T18:05:23.033Z,101333.41
2018-08-17T18:08:26.917Z,101328.06
2018-08-17T18:11:31.142Z,101337.80
2018-08-17T18:14:35.029Z,101338.66
2018-08-17T18:17:39.164Z,101341.70
2018-08-17T18:20:43.059Z,101342.67
2018-08-17T18:23:54.694Z,101347.53
2018-08-17T18:26:58.583Z,101344.92
2018-08-17T18:30:03.024Z,101354.41
2018-08-17T18:33:07.297Z,101345.31
2018-08-17T18:36:11.184Z,101349.45
2018-08-17T18:39:16.109Z,101354.54
2018-08-17T18:42:20.764Z,101353.94
2018-08-17T18:45:24.869Z,101352.85
2018-08-17T18:48:28.752Z,101354.28
2018-08-17T18:51:32.637Z,101355.68
2018-08-17T18:54:36.526Z,101359.06
2018-08-17T18:57:40.602Z,101364.98
2018-08-17T19:00:44.834Z,101367.08
2018-08-17T19:03:49.048Z,101373.09
2018-08-17T19:06:53.081Z,101368.55
2018-08-17T19:09:56.975Z,101377.77
2018-08-17T19:13:01.059Z,101378.44
2018-08-17T19:16:05.004Z,101385.14
2018-08-17T19:19:09.069Z,101377.62
2018-08-17T19:22:13.002Z,101381.16
2018-08-17T19:25:16.972Z,101388.31
2018-08-17T19:28:21.048Z,101391.41
2018-08-17T19:31:25.132Z,101388.52
2018-08-17T19:34:30.615Z,101387.53
2018-08-17T19:37:38.730Z,101389.83
2018-08-17T19:40:42.949Z,101390.81
2018-08-17T19:43:46.840Z,101389.79
2018-08-17T19:46:51.269Z,101396.36
2018-08-17T19:49:55.166Z,101398.86
2018-08-17T19:52:59.352Z,101400.20
2018-08-17T19:56:03.379Z,101408.03
2018-08-17T19:59:07.652Z,101409.95
2018-08-17T20:02:11.867Z,101411.38
2018-08-17T20:05:15.766Z,101415.88
2018-08-17T20:08:19.658Z,101420.63
2018-08-17T20:11:23.541Z,101425.88
2018-08-17T20:14:27.460Z,101427.41
2018-08-17T20:17:31.340Z,101423.89
2018-08-17T20:20:35.402Z,101431.07
2018-08-17T20:23:39.472Z,101436.73
2018-08-17T20:26:43.740Z,101439.84
2018-08-17T20:29:47.490Z,101437.72
2018-08-17T20:32:51.924Z,101438.66
2018-08-17T20:35:56.675Z,101441.84
2018-08-17T20:39:00.544Z,101438.95
2018-08-17T20:42:04.429Z,101445.50
2018-08-17T20:45:08.888Z,101452.38
2018-08-17T20:48:12.768Z,101451.80
2018-08-17T20:51:22.150Z,101455.81
2018-08-17T20:54:26.405Z,101454.68
2018-08-17T20:57:30.292Z,101457.39
2018-08-17T21:00:34.446Z,101465.52
2018-08-17T21:03:38.846Z,101468.77
2018-08-17T21:06:43.559Z,101469.21
2018-08-17T21:09:47.484Z,101470.78
2018-08-17T21:12:51.585Z,101468.17
2018-08-17T21:15:55.462Z,101467.16
2018-08-17T21:18:59.726Z,101463.98
2018-08-17T21:22:04.130Z,101467.47
2018-08-17T21:25:08.234Z,101467.20
2018-08-17T21:28:12.341Z,101475.16
2018-08-17T21:31:17.240Z,101482.42
2018-08-17T21:34:21.516Z,101479.28
2018-08-17T21:37:26.361Z,101479.52
2018-08-17T21:40:30.764Z,101484.94
2018-08-17T21:43:34.643Z,101488.64
2018-08-17T21:46:38.725Z,101481.57
2018-08-17T21:49:42.602Z,101484.52
2018-08-17T21:52:47.029Z,101486.33
2018-08-17T21:55:50.909Z,101477.08
2018-08-17T21:58:54.800Z,101480.22
2018-08-17T22:01:58.686Z,101471.34
2018-08-17T22:05:02.577Z,101472.32
2018-08-17T22:08:06.465Z,101479.34
2018-08-17T22:11:11.288Z,101482.28
2018-08-17T22:14:15.512Z,101483.20
2018-08-17T22:17:31.865Z,101484.36
2018-08-17T22:20:35.768Z,101483.79
2018-08-17T22:23:39.853Z,101494.74
2018-08-17T22:26:43.745Z,101493.53
2018-08-17T22:29:49.483Z,101490.92
2018-08-17T22:32:53.451Z,101496.23
2018-08-17T22:35:57.543Z,101497.61
2018-08-17T22:39:01.934Z,101500.00
2018-08-17T22:42:06.010Z,101500.77
2018-08-17T22:45:10.080Z,101494.79
2018-08-17T22:48:13.992Z,101499.75
2018-08-17T22:51:18.373Z,101500.30
2018-08-17T22:54:22.242Z,101504.86
2018-08-17T22:57:26.821Z,101506.48
2018-08-17T23:00:31.551Z,101503.83
2018-08-17T23:03:39.037Z,101510.28
2018-08-17T23:06:43.607Z,101507.87
2018-08-17T23:09:47.559Z,101508.05
2018-08-17T23:12:52.409Z,101507.92
2018-08-17T23:15:57.964Z,101509.47
2018-08-17T23:19:01.858Z,101508.77
2018-08-17T23:22:06.069Z,101512.05
2018-08-17T23:25:12.057Z,101511.97
2018-08-17T23:28:15.930Z,101509.59
2018-08-17T23:31:19.805Z,101514.03
2018-08-17T23:34:23.687Z,101517.50
2018-08-17T23:37:27.557Z,101518.66
2018-08-17T23:40:31.441Z,101516.61
2018-08-17T23:43:35.654Z,101514.23
2018-08-17T23:46:39.526Z,101516.59
2018-08-17T23:49:43.402Z,101513.39
2018-08-17T23:52:47.530Z,101513.02
2018-08-17T23:55:51.622Z,101515.98
2018-08-17T23:58:55.503Z,101516.64
